sensor_id;sensor_type;location;lat;lon;timestamp;temperature;humidity
9041;DHT22;4555;49.918;7.012;2022-08-30T00:00:41;17.00;99.90
9041;DHT22;4555;49.918;7.012;2022-08-30T00:03:26;14.30;99.90
9041;DHT22;4555;49.918;7.012;2022-08-30T00:05:52;15.80;99.90
9041;DHT22;4555;49.918;7.012;2022-08-30T00:08:18;17.20;99.90
9041;DHT22;4555;49.918;7.012;2022-08-30T00:10:44;16.80;99.90
9041;DHT22;4555;49.918;7.012;2022-08-30T00:13:12;17.70;99.90
9041;DHT22;4555;49.918;7.012;2022-08-30T00:15:40;15.80;99.90
9041;DHT22;4555;49.918;7.012;2022-08-30T00:18:07;16.70;99.90
9041;DHT22;4555;49.918;7.012;2022-08-30T00:20:34;17.60;99.90
9041;DHT22;4555;49.918;7.012;2022-08-30T00:23:01;16.30;99.90
9041;DHT22;4555;49.918;7.012;2022-08-30T00:25:27;15.80;99.90
9041;DHT22;4555;49.918;7.012;2022-08-30T00:27:52;15.70;99.90
9041;DHT22;4555;49.918;7.012;2022-08-30T00:30:19;18.50;99.90
9041;DHT22;4555;49.918;7.012;2022-08-30T00:32:45;15.50;99.90
9041;DHT22;4555;49.918;7.012;2022-08-30T00:35:13;17.80;99.90
9041;DHT22;4555;49.918;7.012;2022-08-30T00:37:39;16.30;99.90
9041;DHT22;4555;49.918;7.012;2022-08-30T00:40:06;16.40;99.90
9041;DHT22;4555;49.918;7.012;2022-08-30T00:42:33;15.60;99.90
9041;DHT22;4555;49.918;7.012;2022-08-30T00:45:00;16.90;99.90
9041;DHT22;4555;49.918;7.012;2022-08-30T00:47:34;16.80;99.90
9041;DHT22;4555;49.918;7.012;2022-08-30T00:50:00;16.70;99.90
9041;DHT22;4555;49.918;7.012;2022-08-30T00:52:26;16.60;99.90
9041;DHT22;4555;49.918;7.012;2022-08-30T00:54:52;16.10;99.90
9041;DHT22;4555;49.918;7.012;2022-08-30T00:57:18;15.40;99.90
9041;DHT22;4555;49.918;7.012;2022-08-30T00:59:46;17.00;99.90
9041;DHT22;4555;49.918;7.012;2022-08-30T01:02:15;15.60;99.90
9041;DHT22;4555;49.918;7.012;2022-08-30T01:04:43;15.80;99.90
9041;DHT22;4555;49.918;7.012;2022-08-30T01:07:09;18.90;99.90
9041;DHT22;4555;49.918;7.012;2022-08-30T01:09:35;17.00;99.90
9041;DHT22;4555;49.918;7.012;2022-08-30T01:12:02;18.50;99.90
9041;DHT22;4555;49.918;7.012;2022-08-30T01:14:29;15.30;99.90
9041;DHT22;4555;49.918;7.012;2022-08-30T01:16:58;15.90;99.90
9041;DHT22;4555;49.918;7.012;2022-08-30T01:24:49;15.30;99.90
9041;DHT22;4555;49.918;7.012;2022-08-30T01:27:17;15.40;99.90
9041;DHT22;4555;49.918;7.012;2022-08-30T01:29:42;15.30;99.90
9041;DHT22;4555;49.918;7.012;2022-08-30T01:32:22;16.90;99.90
9041;DHT22;4555;49.918;7.012;2022-08-30T01:34:48;15.90;99.90
9041;DHT22;4555;49.918;7.012;2022-08-30T01:37:15;15.20;99.90
9041;DHT22;4555;49.918;7.012;2022-08-30T01:39:44;15.10;99.90
9041;DHT22;4555;49.918;7.012;2022-08-30T01:42:11;15.70;99.90
9041;DHT22;4555;49.918;7.012;2022-08-30T01:44:37;16.90;99.90
9041;DHT22;4555;49.918;7.012;2022-08-30T01:47:03;18.00;99.90
9041;DHT22;4555;49.918;7.012;2022-08-30T01:49:29;15.10;99.90
9041;DHT22;4555;49.918;7.012;2022-08-30T01:51:55;15.10;99.90
9041;DHT22;4555;49.918;7.012;2022-08-30T01:54:22;15.00;99.90
9041;DHT22;4555;49.918;7.012;2022-08-30T01:56:48;14.90;99.90
9041;DHT22;4555;49.918;7.012;2022-08-30T01:59:13;15.40;99.90
9041;DHT22;4555;49.918;7.012;2022-08-30T02:01:39;15.80;99.90
9041;DHT22;4555;49.918;7.012;2022-08-30T02:04:06;16.00;99.90
9041;DHT22;4555;49.918;7.012;2022-08-30T02:06:33;14.70;99.90
9041;DHT22;4555;49.918;7.012;2022-08-30T02:09:08;15.30;99.90
9041;DHT22;4555;49.918;7.012;2022-08-30T02:11:34;16.20;99.90
9041;DHT22;4555;49.918;7.012;2022-08-30T02:14:00;14.60;99.90
9041;DHT22;4555;49.918;7.012;2022-08-30T02:16:26;16.40;99.90
9041;DHT22;4555;49.918;7.012;2022-08-30T02:18:52;16.30;99.90
9041;DHT22;4555;49.918;7.012;2022-08-30T02:21:19;15.60;99.90
9041;DHT22;4555;49.918;7.012;2022-08-30T02:23:44;16.70;99.90
9041;DHT22;4555;49.918;7.012;2022-08-30T02:26:11;16.50;99.90
9041;DHT22;4555;49.918;7.012;2022-08-30T02:28:37;16.40;99.90
9041;DHT22;4555;49.918;7.012;2022-08-30T02:31:03;14.60;99.90
9041;DHT22;4555;49.918;7.012;2022-08-30T02:33:29;15.50;99.90
9041;DHT22;4555;49.918;7.012;2022-08-30T02:35:56;15.20;99.90
9041;DHT22;4555;49.918;7.012;2022-08-30T02:38:22;15.40;99.90
9041;DHT22;4555;49.918;7.012;2022-08-30T02:40:48;16.10;99.90
9041;DHT22;4555;49.918;7.012;2022-08-30T02:43:14;16.50;99.90
9041;DHT22;4555;49.918;7.012;2022-08-30T02:45:40;16.10;99.90
9041;DHT22;4555;49.918;7.012;2022-08-30T02:48:05;14.50;99.90
9041;DHT22;4555;49.918;7.012;2022-08-30T02:50:31;14.50;99.90
9041;DHT22;4555;49.918;7.012;2022-08-30T02:52:57;14.70;99.90
9041;DHT22;4555;49.918;7.012;2022-08-30T02:55:23;16.50;99.90
9041;DHT22;4555;49.918;7.012;2022-08-30T02:57:48;14.70;99.90
9041;DHT22;4555;49.918;7.012;2022-08-30T03:00:17;14.50;99.90
9041;DHT22;4555;49.918;7.012;2022-08-30T03:02:44;15.60;99.90
9041;DHT22;4555;49.918;7.012;2022-08-30T03:05:10;18.00;99.90
9041;DHT22;4555;49.918;7.012;2022-08-30T03:07:40;15.20;99.90
9041;DHT22;4555;49.918;7.012;2022-08-30T03:10:07;14.20;99.90
9041;DHT22;4555;49.918;7.012;2022-08-30T03:12:32;14.20;99.90
9041;DHT22;4555;49.918;7.012;2022-08-30T03:14:58;15.70;99.90
9041;DHT22;4555;49.918;7.012;2022-08-30T03:17:24;15.80;99.90
9041;DHT22;4555;49.918;7.012;2022-08-30T03:19:50;14.50;99.90
9041;DHT22;4555;49.918;7.012;2022-08-30T03:22:16;14.10;99.90
9041;DHT22;4555;49.918;7.012;2022-08-30T03:24:42;15.00;99.90
9041;DHT22;4555;49.918;7.012;2022-08-30T03:27:08;14.00;99.90
9041;DHT22;4555;49.918;7.012;2022-08-30T03:29:34;15.10;99.90
9041;DHT22;4555;49.918;7.012;2022-08-30T03:32:00;15.20;99.90
9041;DHT22;4555;49.918;7.012;2022-08-30T03:34:26;14.10;99.90
9041;DHT22;4555;49.918;7.012;2022-08-30T03:36:53;13.90;99.90
9041;DHT22;4555;49.918;7.012;2022-08-30T03:39:20;14.10;99.90
9041;DHT22;4555;49.918;7.012;2022-08-30T03:41:46;13.60;99.90
9041;DHT22;4555;49.918;7.012;2022-08-30T03:44:12;13.50;99.90
9041;DHT22;4555;49.918;7.012;2022-08-30T03:46:38;15.80;99.90
9041;DHT22;4555;49.918;7.012;2022-08-30T03:49:04;14.00;99.90
9041;DHT22;4555;49.918;7.012;2022-08-30T03:51:31;13.60;99.90
9041;DHT22;4555;49.918;7.012;2022-08-30T03:53:57;15.00;99.90
9041;DHT22;4555;49.918;7.012;2022-08-30T03:56:23;14.20;99.90
9041;DHT22;4555;49.918;7.012;2022-08-30T03:58:49;15.60;99.90
9041;DHT22;4555;49.918;7.012;2022-08-30T04:01:16;14.40;99.90
9041;DHT22;4555;49.918;7.012;2022-08-30T04:03:41;15.00;99.90
9041;DHT22;4555;49.918;7.012;2022-08-30T04:06:07;14.80;99.90
9041;DHT22;4555;49.918;7.012;2022-08-30T04:08:33;14.50;99.90
9041;DHT22;4555;49.918;7.012;2022-08-30T04:10:59;16.60;99.90
9041;DHT22;4555;49.918;7.012;2022-08-30T04:13:28;13.50;99.90
9041;DHT22;4555;49.918;7.012;2022-08-30T04:15:54;15.00;99.90
9041;DHT22;4555;49.918;7.012;2022-08-30T04:18:20;14.10;99.90
9041;DHT22;4555;49.918;7.012;2022-08-30T04:20:46;14.00;99.90
9041;DHT22;4555;49.918;7.012;2022-08-30T04:23:12;12.90;99.90
9041;DHT22;4555;49.918;7.012;2022-08-30T04:25:39;12.90;99.90
9041;DHT22;4555;49.918;7.012;2022-08-30T04:28:06;15.60;99.90
9041;DHT22;4555;49.918;7.012;2022-08-30T04:30:33;13.30;99.90
9041;DHT22;4555;49.918;7.012;2022-08-30T04:32:59;13.30;99.90
9041;DHT22;4555;49.918;7.012;2022-08-30T04:35:25;14.40;99.90
9041;DHT22;4555;49.918;7.012;2022-08-30T04:37:51;14.40;99.90
9041;DHT22;4555;49.918;7.012;2022-08-30T04:40:17;13.40;99.90
9041;DHT22;4555;49.918;7.012;2022-08-30T04:42:43;12.80;99.90
9041;DHT22;4555;49.918;7.012;2022-08-30T04:45:12;13.80;99.90
9041;DHT22;4555;49.918;7.012;2022-08-30T04:47:39;13.20;99.90
9041;DHT22;4555;49.918;7.012;2022-08-30T04:50:10;15.60;99.90
9041;DHT22;4555;49.918;7.012;2022-08-30T04:52:37;15.20;99.90
9041;DHT22;4555;49.918;7.012;2022-08-30T04:55:03;14.30;99.90
9041;DHT22;4555;49.918;7.012;2022-08-30T04:57:29;13.20;99.90
9041;DHT22;4555;49.918;7.012;2022-08-30T04:59:55;15.00;99.90
9041;DHT22;4555;49.918;7.012;2022-08-30T05:02:21;13.40;99.90
9041;DHT22;4555;49.918;7.012;2022-08-30T05:04:46;14.50;99.90
9041;DHT22;4555;49.918;7.012;2022-08-30T05:07:32;14.70;99.90
9041;DHT22;4555;49.918;7.012;2022-08-30T05:09:58;14.10;99.90
9041;DHT22;4555;49.918;7.012;2022-08-30T05:12:23;13.50;99.90
9041;DHT22;4555;49.918;7.012;2022-08-30T05:14:50;14.80;99.90
9041;DHT22;4555;49.918;7.012;2022-08-30T05:17:16;13.60;99.90
9041;DHT22;4555;49.918;7.012;2022-08-30T05:19:42;13.50;99.90
9041;DHT22;4555;49.918;7.012;2022-08-30T05:22:08;14.10;99.90
9041;DHT22;4555;49.918;7.012;2022-08-30T05:24:34;13.60;99.90
9041;DHT22;4555;49.918;7.012;2022-08-30T05:27:00;13.60;99.90
9041;DHT22;4555;49.918;7.012;2022-08-30T05:29:26;15.30;99.90
9041;DHT22;4555;49.918;7.012;2022-08-30T05:31:52;16.80;99.90
9041;DHT22;4555;49.918;7.012;2022-08-30T05:34:18;15.80;99.90
9041;DHT22;4555;49.918;7.012;2022-08-30T05:36:45;14.50;99.90
9041;DHT22;4555;49.918;7.012;2022-08-30T05:39:11;15.70;99.90
9041;DHT22;4555;49.918;7.012;2022-08-30T05:41:37;15.80;99.90
9041;DHT22;4555;49.918;7.012;2022-08-30T05:44:04;14.70;99.90
9041;DHT22;4555;49.918;7.012;2022-08-30T05:46:31;15.00;99.90
9041;DHT22;4555;49.918;7.012;2022-08-30T05:48:59;16.80;99.90
9041;DHT22;4555;49.918;7.012;2022-08-30T05:51:28;18.40;99.90
9041;DHT22;4555;49.918;7.012;2022-08-30T05:53:55;16.60;99.90
9041;DHT22;4555;49.918;7.012;2022-08-30T05:56:24;16.20;99.90
9041;DHT22;4555;49.918;7.012;2022-08-30T05:58:52;16.00;99.90
9041;DHT22;4555;49.918;7.012;2022-08-30T06:03:55;16.00;99.90
9041;DHT22;4555;49.918;7.012;2022-08-30T06:06:22;16.00;99.90
9041;DHT22;4555;49.918;7.012;2022-08-30T06:08:48;16.20;99.90
9041;DHT22;4555;49.918;7.012;2022-08-30T06:11:15;17.00;99.90
9041;DHT22;4555;49.918;7.012;2022-08-30T06:13:42;18.20;99.90
9041;DHT22;4555;49.918;7.012;2022-08-30T06:16:10;17.40;99.90
9041;DHT22;4555;49.918;7.012;2022-08-30T06:18:36;17.30;99.90
9041;DHT22;4555;49.918;7.012;2022-08-30T06:21:02;18.10;99.90
9041;DHT22;4555;49.918;7.012;2022-08-30T06:23:28;17.60;99.90
9041;DHT22;4555;49.918;7.012;2022-08-30T06:25:54;18.30;99.90
9041;DHT22;4555;49.918;7.012;2022-08-30T06:28:19;18.20;99.90
9041;DHT22;4555;49.918;7.012;2022-08-30T06:30:45;17.80;99.90
9041;DHT22;4555;49.918;7.012;2022-08-30T06:33:12;19.50;99.90
9041;DHT22;4555;49.918;7.012;2022-08-30T06:35:38;17.70;99.90
9041;DHT22;4555;49.918;7.012;2022-08-30T06:38:04;17.90;99.90
9041;DHT22;4555;49.918;7.012;2022-08-30T06:40:29;18.10;99.90
9041;DHT22;4555;49.918;7.012;2022-08-30T06:42:55;18.80;99.90
9041;DHT22;4555;49.918;7.012;2022-08-30T06:45:21;18.60;99.90
9041;DHT22;4555;49.918;7.012;2022-08-30T06:47:47;19.20;99.90
9041;DHT22;4555;49.918;7.012;2022-08-30T06:50:15;20.80;99.90
9041;DHT22;4555;49.918;7.012;2022-08-30T06:52:43;19.10;99.90
9041;DHT22;4555;49.918;7.012;2022-08-30T06:55:11;19.40;99.90
9041;DHT22;4555;49.918;7.012;2022-08-30T06:57:37;20.40;99.90
9041;DHT22;4555;49.918;7.012;2022-08-30T07:00:05;22.00;99.90
9041;DHT22;4555;49.918;7.012;2022-08-30T07:02:32;19.60;99.90
9041;DHT22;4555;49.918;7.012;2022-08-30T07:04:58;19.60;99.90
9041;DHT22;4555;49.918;7.012;2022-08-30T07:07:23;20.00;99.90
9041;DHT22;4555;49.918;7.012;2022-08-30T07:09:49;19.90;99.90
9041;DHT22;4555;49.918;7.012;2022-08-30T07:12:15;20.40;99.90
9041;DHT22;4555;49.918;7.012;2022-08-30T07:14:41;22.20;99.90
9041;DHT22;4555;49.918;7.012;2022-08-30T07:17:08;22.10;99.90
9041;DHT22;4555;49.918;7.012;2022-08-30T07:19:52;21.00;99.90
9041;DHT22;4555;49.918;7.012;2022-08-30T07:22:18;21.20;99.90
9041;DHT22;4555;49.918;7.012;2022-08-30T07:24:44;22.80;99.90
9041;DHT22;4555;49.918;7.012;2022-08-30T07:27:10;21.50;99.90
9041;DHT22;4555;49.918;7.012;2022-08-30T07:29:35;21.70;99.90
9041;DHT22;4555;49.918;7.012;2022-08-30T07:32:01;21.70;99.90
9041;DHT22;4555;49.918;7.012;2022-08-30T07:34:27;21.90;99.90
9041;DHT22;4555;49.918;7.012;2022-08-30T07:36:52;22.10;99.90
9041;DHT22;4555;49.918;7.012;2022-08-30T07:39:18;22.40;99.90
9041;DHT22;4555;49.918;7.012;2022-08-30T07:41:44;22.70;99.90
9041;DHT22;4555;49.918;7.012;2022-08-30T07:44:10;24.00;99.90
9041;DHT22;4555;49.918;7.012;2022-08-30T07:46:37;22.90;99.90
9041;DHT22;4555;49.918;7.012;2022-08-30T07:49:04;22.80;99.90
9041;DHT22;4555;49.918;7.012;2022-08-30T07:51:30;22.90;99.90
9041;DHT22;4555;49.918;7.012;2022-08-30T07:53:56;22.90;99.90
9041;DHT22;4555;49.918;7.012;2022-08-30T07:56:22;23.30;99.90
9041;DHT22;4555;49.918;7.012;2022-08-30T07:58:49;23.60;99.90
9041;DHT22;4555;49.918;7.012;2022-08-30T08:01:15;24.00;99.90
9041;DHT22;4555;49.918;7.012;2022-08-30T08:03:42;24.20;99.90
9041;DHT22;4555;49.918;7.012;2022-08-30T08:06:10;24.40;99.90
9041;DHT22;4555;49.918;7.012;2022-08-30T08:08:37;24.50;99.90
9041;DHT22;4555;49.918;7.012;2022-08-30T08:11:14;24.80;99.90
9041;DHT22;4555;49.918;7.012;2022-08-30T08:13:41;25.10;99.90
9041;DHT22;4555;49.918;7.012;2022-08-30T08:16:08;25.50;99.90
9041;DHT22;4555;49.918;7.012;2022-08-30T08:18:33;26.90;99.90
9041;DHT22;4555;49.918;7.012;2022-08-30T08:21:00;26.10;99.90
9041;DHT22;4555;49.918;7.012;2022-08-30T08:23:26;26.50;99.90
9041;DHT22;4555;49.918;7.012;2022-08-30T08:25:52;27.00;1.00
9041;DHT22;4555;49.918;7.012;2022-08-30T08:28:18;28.00;1.30
9041;DHT22;4555;49.918;7.012;2022-08-30T08:30:44;27.00;3.10
9041;DHT22;4555;49.918;7.012;2022-08-30T08:33:10;26.90;1.00
9041;DHT22;4555;49.918;7.012;2022-08-30T08:35:38;26.00;1.00
9041;DHT22;4555;49.918;7.012;2022-08-30T08:38:04;25.80;1.00
9041;DHT22;4555;49.918;7.012;2022-08-30T08:40:37;26.30;1.00
9041;DHT22;4555;49.918;7.012;2022-08-30T08:43:15;26.60;1.00
9041;DHT22;4555;49.918;7.012;2022-08-30T08:48:47;27.60;1.00
9041;DHT22;4555;49.918;7.012;2022-08-30T08:51:17;28.00;1.00
9041;DHT22;4555;49.918;7.012;2022-08-30T08:56:41;28.50;1.00
9041;DHT22;4555;49.918;7.012;2022-08-30T08:59:08;28.80;1.00
9041;DHT22;4555;49.918;7.012;2022-08-30T09:01:36;28.80;1.00
9041;DHT22;4555;49.918;7.012;2022-08-30T09:04:21;29.00;1.00
9041;DHT22;4555;49.918;7.012;2022-08-30T09:06:49;29.30;1.00
9041;DHT22;4555;49.918;7.012;2022-08-30T09:12:13;29.30;1.00
9041;DHT22;4555;49.918;7.012;2022-08-30T09:14:42;29.30;1.00
9041;DHT22;4555;49.918;7.012;2022-08-30T09:17:11;29.50;1.00
9041;DHT22;4555;49.918;7.012;2022-08-30T09:25:02;30.10;1.00
9041;DHT22;4555;49.918;7.012;2022-08-30T09:27:37;30.10;1.00
9041;DHT22;4555;49.918;7.012;2022-08-30T09:33:05;30.20;1.00
9041;DHT22;4555;49.918;7.012;2022-08-30T09:35:42;30.20;1.00
9041;DHT22;4555;49.918;7.012;2022-08-30T09:38:10;30.30;1.00
9041;DHT22;4555;49.918;7.012;2022-08-30T09:40:43;30.30;1.00
9041;DHT22;4555;49.918;7.012;2022-08-30T09:43:32;30.60;1.00
9041;DHT22;4555;49.918;7.012;2022-08-30T09:48:36;31.30;1.00
9041;DHT22;4555;49.918;7.012;2022-08-30T09:56:43;31.30;1.00
9041;DHT22;4555;49.918;7.012;2022-08-30T09:59:38;31.70;1.00
9041;DHT22;4555;49.918;7.012;2022-08-30T10:05:37;32.30;1.00
9041;DHT22;4555;49.918;7.012;2022-08-30T10:08:17;32.40;1.00
9041;DHT22;4555;49.918;7.012;2022-08-30T10:10:55;32.20;1.00
9041;DHT22;4555;49.918;7.012;2022-08-30T10:13:52;31.90;1.00
9041;DHT22;4555;49.918;7.012;2022-08-30T10:21:40;31.30;1.00
9041;DHT22;4555;49.918;7.012;2022-08-30T10:24:19;31.80;1.00
9041;DHT22;4555;49.918;7.012;2022-08-30T10:26:56;32.00;1.00
9041;DHT22;4555;49.918;7.012;2022-08-30T10:32:19;32.00;1.00
9041;DHT22;4555;49.918;7.012;2022-08-30T10:34:52;31.90;1.00
9041;DHT22;4555;49.918;7.012;2022-08-30T10:37:24;32.10;1.00
9041;DHT22;4555;49.918;7.012;2022-08-30T10:39:53;31.70;1.00
9041;DHT22;4555;49.918;7.012;2022-08-30T10:42:26;31.70;1.00
9041;DHT22;4555;49.918;7.012;2022-08-30T10:50:27;32.10;1.00
9041;DHT22;4555;49.918;7.012;2022-08-30T10:52:58;31.20;1.00
9041;DHT22;4555;49.918;7.012;2022-08-30T10:55:32;31.00;1.00
9041;DHT22;4555;49.918;7.012;2022-08-30T10:58:01;31.10;1.00
9041;DHT22;4555;49.918;7.012;2022-08-30T11:00:31;31.30;1.00
9041;DHT22;4555;49.918;7.012;2022-08-30T11:03:30;31.30;1.00
9041;DHT22;4555;49.918;7.012;2022-08-30T11:09:01;31.70;1.00
9041;DHT22;4555;49.918;7.012;2022-08-30T11:12:00;31.80;1.00
9041;DHT22;4555;49.918;7.012;2022-08-30T11:14:41;32.30;1.00
9041;DHT22;4555;49.918;7.012;2022-08-30T11:19:49;32.60;1.00
9041;DHT22;4555;49.918;7.012;2022-08-30T11:22:22;32.80;1.00
9041;DHT22;4555;49.918;7.012;2022-08-30T11:25:15;33.10;1.00
9041;DHT22;4555;49.918;7.012;2022-08-30T11:33:00;32.10;1.00
9041;DHT22;4555;49.918;7.012;2022-08-30T11:35:43;32.10;1.00
9041;DHT22;4555;49.918;7.012;2022-08-30T11:48:54;31.00;1.00
9041;DHT22;4555;49.918;7.012;2022-08-30T11:51:38;31.60;1.00
9041;DHT22;4555;49.918;7.012;2022-08-30T12:00:32;31.20;1.00
9041;DHT22;4555;49.918;7.012;2022-08-30T12:03:23;30.90;1.00
9041;DHT22;4555;49.918;7.012;2022-08-30T12:06:00;31.20;1.00
9041;DHT22;4555;49.918;7.012;2022-08-30T12:08:47;31.60;1.00
9041;DHT22;4555;49.918;7.012;2022-08-30T12:18:49;30.80;1.00
9041;DHT22;4555;49.918;7.012;2022-08-30T12:28:52;31.60;1.00
9041;DHT22;4555;49.918;7.012;2022-08-30T12:31:30;31.90;1.00
9041;DHT22;4555;49.918;7.012;2022-08-30T12:33:58;32.40;1.00
9041;DHT22;4555;49.918;7.012;2022-08-30T12:36:49;32.70;1.00
9041;DHT22;4555;49.918;7.012;2022-08-30T12:39:23;32.50;1.00
9041;DHT22;4555;49.918;7.012;2022-08-30T12:41:50;32.90;1.00
9041;DHT22;4555;49.918;7.012;2022-08-30T12:44:27;33.00;1.00
9041;DHT22;4555;49.918;7.012;2022-08-30T12:46:58;31.90;1.00
9041;DHT22;4555;49.918;7.012;2022-08-30T12:49:27;31.40;1.00
9041;DHT22;4555;49.918;7.012;2022-08-30T12:51:54;30.70;1.00
9041;DHT22;4555;49.918;7.012;2022-08-30T12:54:23;30.30;1.00
9041;DHT22;4555;49.918;7.012;2022-08-30T12:57:01;29.90;1.00
9041;DHT22;4555;49.918;7.012;2022-08-30T12:59:57;29.80;1.00
9041;DHT22;4555;49.918;7.012;2022-08-30T13:02:47;30.60;1.00
9041;DHT22;4555;49.918;7.012;2022-08-30T13:08:23;31.80;1.00
9041;DHT22;4555;49.918;7.012;2022-08-30T13:10:58;31.70;1.00
9041;DHT22;4555;49.918;7.012;2022-08-30T13:13:34;32.20;1.00
9041;DHT22;4555;49.918;7.012;2022-08-30T13:16:11;32.60;1.00
9041;DHT22;4555;49.918;7.012;2022-08-30T13:21:21;32.50;1.00
9041;DHT22;4555;49.918;7.012;2022-08-30T13:23:49;32.70;1.00
9041;DHT22;4555;49.918;7.012;2022-08-30T13:26:15;32.60;1.00
9041;DHT22;4555;49.918;7.012;2022-08-30T13:28:47;32.70;1.00
9041;DHT22;4555;49.918;7.012;2022-08-30T13:31:13;32.90;1.00
9041;DHT22;4555;49.918;7.012;2022-08-30T13:33:39;32.80;1.00
9041;DHT22;4555;49.918;7.012;2022-08-30T13:36:05;32.50;1.00
9041;DHT22;4555;49.918;7.012;2022-08-30T13:38:31;32.30;1.00
9041;DHT22;4555;49.918;7.012;2022-08-30T13:40:57;32.10;1.00
9041;DHT22;4555;49.918;7.012;2022-08-30T13:43:23;31.80;1.00
9041;DHT22;4555;49.918;7.012;2022-08-30T13:45:48;32.00;1.00
9041;DHT22;4555;49.918;7.012;2022-08-30T13:48:14;31.40;1.00
9041;DHT22;4555;49.918;7.012;2022-08-30T13:50:40;31.70;1.00
9041;DHT22;4555;49.918;7.012;2022-08-30T13:53:08;32.30;1.00
9041;DHT22;4555;49.918;7.012;2022-08-30T13:55:34;32.10;1.00
9041;DHT22;4555;49.918;7.012;2022-08-30T13:58:00;31.70;1.00
9041;DHT22;4555;49.918;7.012;2022-08-30T14:00:29;31.40;1.00
9041;DHT22;4555;49.918;7.012;2022-08-30T14:02:55;31.10;1.00
9041;DHT22;4555;49.918;7.012;2022-08-30T14:05:23;30.70;1.00
9041;DHT22;4555;49.918;7.012;2022-08-30T14:07:49;30.80;1.00
9041;DHT22;4555;49.918;7.012;2022-08-30T14:10:17;30.90;1.00
9041;DHT22;4555;49.918;7.012;2022-08-30T14:12:43;30.80;1.00
9041;DHT22;4555;49.918;7.012;2022-08-30T14:15:09;30.90;1.00
9041;DHT22;4555;49.918;7.012;2022-08-30T14:17:34;31.50;1.00
9041;DHT22;4555;49.918;7.012;2022-08-30T14:20:00;32.10;1.00
9041;DHT22;4555;49.918;7.012;2022-08-30T14:22:26;32.60;1.00
9041;DHT22;4555;49.918;7.012;2022-08-30T14:24:52;33.00;1.00
9041;DHT22;4555;49.918;7.012;2022-08-30T14:27:19;32.80;1.00
9041;DHT22;4555;49.918;7.012;2022-08-30T14:29:44;32.70;1.00
9041;DHT22;4555;49.918;7.012;2022-08-30T14:32:10;32.70;1.00
9041;DHT22;4555;49.918;7.012;2022-08-30T14:34:36;32.30;1.00
9041;DHT22;4555;49.918;7.012;2022-08-30T14:37:02;31.70;1.00
9041;DHT22;4555;49.918;7.012;2022-08-30T14:39:29;31.60;1.00
9041;DHT22;4555;49.918;7.012;2022-08-30T14:41:55;31.50;1.00
9041;DHT22;4555;49.918;7.012;2022-08-30T14:44:23;31.00;1.00
9041;DHT22;4555;49.918;7.012;2022-08-30T14:46:49;30.80;1.00
9041;DHT22;4555;49.918;7.012;2022-08-30T14:49:15;30.80;1.00
9041;DHT22;4555;49.918;7.012;2022-08-30T14:51:42;30.60;1.00
9041;DHT22;4555;49.918;7.012;2022-08-30T14:54:10;31.00;1.00
9041;DHT22;4555;49.918;7.012;2022-08-30T14:56:38;31.10;1.00
9041;DHT22;4555;49.918;7.012;2022-08-30T14:59:04;31.10;1.00
9041;DHT22;4555;49.918;7.012;2022-08-30T15:01:30;30.80;1.00
9041;DHT22;4555;49.918;7.012;2022-08-30T15:03:56;30.70;1.00
9041;DHT22;4555;49.918;7.012;2022-08-30T15:06:23;30.30;1.00
9041;DHT22;4555;49.918;7.012;2022-08-30T15:08:48;30.70;1.00
9041;DHT22;4555;49.918;7.012;2022-08-30T15:11:16;31.30;1.00
9041;DHT22;4555;49.918;7.012;2022-08-30T15:13:42;31.40;1.00
9041;DHT22;4555;49.918;7.012;2022-08-30T15:16:13;31.20;1.00
9041;DHT22;4555;49.918;7.012;2022-08-30T15:18:38;31.00;1.00
9041;DHT22;4555;49.918;7.012;2022-08-30T15:21:04;31.30;1.00
9041;DHT22;4555;49.918;7.012;2022-08-30T15:23:30;32.30;1.00
9041;DHT22;4555;49.918;7.012;2022-08-30T15:25:56;32.80;1.00
9041;DHT22;4555;49.918;7.012;2022-08-30T15:28:21;33.20;1.00
9041;DHT22;4555;49.918;7.012;2022-08-30T15:30:47;32.80;1.00
9041;DHT22;4555;49.918;7.012;2022-08-30T15:33:12;32.80;1.00
9041;DHT22;4555;49.918;7.012;2022-08-30T15:35:38;33.60;1.00
9041;DHT22;4555;49.918;7.012;2022-08-30T15:38:04;33.50;1.00
9041;DHT22;4555;49.918;7.012;2022-08-30T15:40:31;33.30;1.00
9041;DHT22;4555;49.918;7.012;2022-08-30T15:42:57;32.70;1.00
9041;DHT22;4555;49.918;7.012;2022-08-30T15:45:23;32.40;1.00
9041;DHT22;4555;49.918;7.012;2022-08-30T15:47:48;31.90;1.00
9041;DHT22;4555;49.918;7.012;2022-08-30T15:50:17;31.30;1.00
9041;DHT22;4555;49.918;7.012;2022-08-30T15:52:43;30.50;1.00
9041;DHT22;4555;49.918;7.012;2022-08-30T15:55:09;30.20;1.00
9041;DHT22;4555;49.918;7.012;2022-08-30T15:57:35;29.80;1.00
9041;DHT22;4555;49.918;7.012;2022-08-30T16:00:00;29.70;1.00
9041;DHT22;4555;49.918;7.012;2022-08-30T16:02:26;29.80;1.00
9041;DHT22;4555;49.918;7.012;2022-08-30T16:04:52;30.30;1.00
9041;DHT22;4555;49.918;7.012;2022-08-30T16:07:17;30.60;1.00
9041;DHT22;4555;49.918;7.012;2022-08-30T16:09:43;31.40;1.00
9041;DHT22;4555;49.918;7.012;2022-08-30T16:12:08;32.00;1.00
9041;DHT22;4555;49.918;7.012;2022-08-30T16:14:34;32.00;1.00
9041;DHT22;4555;49.918;7.012;2022-08-30T16:17:00;32.20;1.00
9041;DHT22;4555;49.918;7.012;2022-08-30T16:19:26;32.50;1.00
9041;DHT22;4555;49.918;7.012;2022-08-30T16:21:52;32.70;1.00
9041;DHT22;4555;49.918;7.012;2022-08-30T16:24:18;31.90;1.00
9041;DHT22;4555;49.918;7.012;2022-08-30T16:26:44;31.80;1.00
9041;DHT22;4555;49.918;7.012;2022-08-30T16:29:11;31.10;1.00
9041;DHT22;4555;49.918;7.012;2022-08-30T16:31:38;30.60;1.00
9041;DHT22;4555;49.918;7.012;2022-08-30T16:34:04;30.30;1.00
9041;DHT22;4555;49.918;7.012;2022-08-30T16:36:31;30.40;1.00
9041;DHT22;4555;49.918;7.012;2022-08-30T16:38:57;30.20;1.00
9041;DHT22;4555;49.918;7.012;2022-08-30T16:41:23;29.80;1.00
9041;DHT22;4555;49.918;7.012;2022-08-30T16:43:49;29.70;1.00
9041;DHT22;4555;49.918;7.012;2022-08-30T16:46:17;29.90;1.00
9041;DHT22;4555;49.918;7.012;2022-08-30T16:48:44;30.10;1.00
9041;DHT22;4555;49.918;7.012;2022-08-30T16:51:15;30.10;1.00
9041;DHT22;4555;49.918;7.012;2022-08-30T16:53:41;30.20;1.00
9041;DHT22;4555;49.918;7.012;2022-08-30T16:56:14;30.10;1.00
9041;DHT22;4555;49.918;7.012;2022-08-30T16:58:41;29.80;1.00
9041;DHT22;4555;49.918;7.012;2022-08-30T17:01:07;29.50;1.00
9041;DHT22;4555;49.918;7.012;2022-08-30T17:03:33;29.30;1.00
9041;DHT22;4555;49.918;7.012;2022-08-30T17:05:59;29.10;1.00
9041;DHT22;4555;49.918;7.012;2022-08-30T17:08:25;28.90;1.00
9041;DHT22;4555;49.918;7.012;2022-08-30T17:10:51;28.70;1.00
9041;DHT22;4555;49.918;7.012;2022-08-30T17:13:16;28.70;1.00
9041;DHT22;4555;49.918;7.012;2022-08-30T17:15:42;28.50;1.00
9041;DHT22;4555;49.918;7.012;2022-08-30T17:18:12;28.30;1.00
9041;DHT22;4555;49.918;7.012;2022-08-30T17:20:38;28.20;1.00
9041;DHT22;4555;49.918;7.012;2022-08-30T17:23:03;28.10;1.00
9041;DHT22;4555;49.918;7.012;2022-08-30T17:25:29;28.10;1.00
9041;DHT22;4555;49.918;7.012;2022-08-30T17:27:55;28.00;1.00
9041;DHT22;4555;49.918;7.012;2022-08-30T17:30:20;27.70;1.00
9041;DHT22;4555;49.918;7.012;2022-08-30T17:32:46;27.80;1.00
9041;DHT22;4555;49.918;7.012;2022-08-30T17:35:12;27.70;1.00
9041;DHT22;4555;49.918;7.012;2022-08-30T17:37:39;27.60;1.00
9041;DHT22;4555;49.918;7.012;2022-08-30T17:40:05;27.60;1.00
9041;DHT22;4555;49.918;7.012;2022-08-30T17:42:31;27.50;1.00
9041;DHT22;4555;49.918;7.012;2022-08-30T17:44:57;27.40;1.00
9041;DHT22;4555;49.918;7.012;2022-08-30T17:47:23;28.00;1.00
9041;DHT22;4555;49.918;7.012;2022-08-30T17:49:48;27.20;1.00
9041;DHT22;4555;49.918;7.012;2022-08-30T17:52:14;27.10;1.00
9041;DHT22;4555;49.918;7.012;2022-08-30T17:54:40;27.10;1.00